sensor_id;sensor_type;location;lat;lon;timestamp;temperature;humidity
75387;DHT22;63966;47.914;22.266;2023-07-31T00:12:40;19.22;89.04
75387;DHT22;63966;47.914;22.266;2023-07-31T00:15:46;19.28;88.39
75387;DHT22;63966;47.914;22.266;2023-07-31T00:18:49;19.28;88.40
75387;DHT22;63966;47.914;22.266;2023-07-31T00:21:53;19.23;88.43
75387;DHT22;63966;47.914;22.266;2023-07-31T00:24:57;19.23;88.63
75387;DHT22;63966;47.914;22.266;2023-07-31T00:28:00;19.12;88.66
75387;DHT22;63966;47.914;22.266;2023-07-31T00:31:04;19.12;88.76
75387;DHT22;63966;47.914;22.266;2023-07-31T00:34:07;19.17;88.47
75387;DHT22;63966;47.914;22.266;2023-07-31T00:37:11;19.27;88.00
75387;DHT22;63966;47.914;22.266;2023-07-31T00:40:14;19.26;88.44
75387;DHT22;63966;47.914;22.266;2023-07-31T00:43:18;19.22;88.51
75387;DHT22;63966;47.914;22.266;2023-07-31T00:46:22;19.30;88.55
75387;DHT22;63966;47.914;22.266;2023-07-31T00:49:25;19.36;88.16
75387;DHT22;63966;47.914;22.266;2023-07-31T00:52:29;19.34;88.12
75387;DHT22;63966;47.914;22.266;2023-07-31T00:55:33;19.34;88.45
75387;DHT22;63966;47.914;22.266;2023-07-31T00:58:36;19.38;88.05
75387;DHT22;63966;47.914;22.266;2023-07-31T01:01:40;19.30;87.99
75387;DHT22;63966;47.914;22.266;2023-07-31T01:04:44;19.16;88.79
75387;DHT22;63966;47.914;22.266;2023-07-31T01:08:24;19.10;88.97
75387;DHT22;63966;47.914;22.266;2023-07-31T01:11:43;19.03;89.15
75387;DHT22;63966;47.914;22.266;2023-07-31T01:15:09;19.00;89.15
75387;DHT22;63966;47.914;22.266;2023-07-31T01:18:15;18.98;89.20
75387;DHT22;63966;47.914;22.266;2023-07-31T01:21:58;18.95;89.23
75387;DHT22;63966;47.914;22.266;2023-07-31T01:25:29;18.78;90.12
75387;DHT22;63966;47.914;22.266;2023-07-31T01:28:39;18.57;90.69
75387;DHT22;63966;47.914;22.266;2023-07-31T01:32:03;18.49;91.10
75387;DHT22;63966;47.914;22.266;2023-07-31T01:35:08;18.47;91.19
75387;DHT22;63966;47.914;22.266;2023-07-31T01:38:11;18.36;91.41
75387;DHT22;63966;47.914;22.266;2023-07-31T01:41:17;18.31;91.58
75387;DHT22;63966;47.914;22.266;2023-07-31T01:44:21;18.33;91.40
75387;DHT22;63966;47.914;22.266;2023-07-31T01:47:24;18.27;91.44
75387;DHT22;63966;47.914;22.266;2023-07-31T01:50:28;18.23;91.53
75387;DHT22;63966;47.914;22.266;2023-07-31T01:53:32;18.20;91.73
75387;DHT22;63966;47.914;22.266;2023-07-31T01:56:35;18.23;91.80
75387;DHT22;63966;47.914;22.266;2023-07-31T01:59:40;18.28;91.84
75387;DHT22;63966;47.914;22.266;2023-07-31T02:02:43;18.28;91.52
75387;DHT22;63966;47.914;22.266;2023-07-31T02:05:50;18.36;90.88
75387;DHT22;63966;47.914;22.266;2023-07-31T02:08:54;18.14;91.37
75387;DHT22;63966;47.914;22.266;2023-07-31T02:11:57;17.99;92.14
75387;DHT22;63966;47.914;22.266;2023-07-31T02:15:00;17.96;92.25
75387;DHT22;63966;47.914;22.266;2023-07-31T02:18:04;17.90;92.41
75387;DHT22;63966;47.914;22.266;2023-07-31T02:21:07;17.75;92.86
75387;DHT22;63966;47.914;22.266;2023-07-31T02:24:11;17.73;93.03
75387;DHT22;63966;47.914;22.266;2023-07-31T02:27:14;17.66;93.16
75387;DHT22;63966;47.914;22.266;2023-07-31T02:30:17;17.61;93.31
75387;DHT22;63966;47.914;22.266;2023-07-31T02:33:21;17.59;93.69
75387;DHT22;63966;47.914;22.266;2023-07-31T02:36:24;17.61;93.56
75387;DHT22;63966;47.914;22.266;2023-07-31T02:39:28;17.59;93.76
75387;DHT22;63966;47.914;22.266;2023-07-31T02:42:31;17.52;93.75
75387;DHT22;63966;47.914;22.266;2023-07-31T02:45:34;17.46;93.82
75387;DHT22;63966;47.914;22.266;2023-07-31T02:48:38;17.59;93.66
75387;DHT22;63966;47.914;22.266;2023-07-31T02:51:41;17.63;93.08
75387;DHT22;63966;47.914;22.266;2023-07-31T02:54:45;17.56;93.53
75387;DHT22;63966;47.914;22.266;2023-07-31T02:57:48;17.55;93.46
75387;DHT22;63966;47.914;22.266;2023-07-31T03:00:52;17.55;93.40
75387;DHT22;63966;47.914;22.266;2023-07-31T03:03:55;17.55;93.28
75387;DHT22;63966;47.914;22.266;2023-07-31T03:06:59;17.58;93.01
75387;DHT22;63966;47.914;22.266;2023-07-31T03:10:02;17.56;92.96
75387;DHT22;63966;47.914;22.266;2023-07-31T03:13:06;17.51;93.24
75387;DHT22;63966;47.914;22.266;2023-07-31T03:16:09;17.53;93.11
75387;DHT22;63966;47.914;22.266;2023-07-31T03:19:13;17.52;93.11
75387;DHT22;63966;47.914;22.266;2023-07-31T03:22:16;17.56;92.94
75387;DHT22;63966;47.914;22.266;2023-07-31T03:25:20;17.41;93.07
75387;DHT22;63966;47.914;22.266;2023-07-31T03:28:23;17.38;93.10
75387;DHT22;63966;47.914;22.266;2023-07-31T03:31:27;17.38;93.08
75387;DHT22;63966;47.914;22.266;2023-07-31T03:34:30;17.34;93.23
75387;DHT22;63966;47.914;22.266;2023-07-31T03:37:35;17.32;93.14
75387;DHT22;63966;47.914;22.266;2023-07-31T03:40:38;17.71;92.59
75387;DHT22;63966;47.914;22.266;2023-07-31T03:43:42;17.97;91.15
75387;DHT22;63966;47.914;22.266;2023-07-31T03:46:45;17.99;90.68
75387;DHT22;63966;47.914;22.266;2023-07-31T03:49:48;17.90;90.51
75387;DHT22;63966;47.914;22.266;2023-07-31T03:52:52;18.00;90.40
75387;DHT22;63966;47.914;22.266;2023-07-31T03:55:56;18.01;90.16
75387;DHT22;63966;47.914;22.266;2023-07-31T03:58:59;18.04;90.34
75387;DHT22;63966;47.914;22.266;2023-07-31T04:02:03;18.10;89.78
75387;DHT22;63966;47.914;22.266;2023-07-31T04:05:07;18.26;89.25
75387;DHT22;63966;47.914;22.266;2023-07-31T04:08:11;18.73;87.49
75387;DHT22;63966;47.914;22.266;2023-07-31T04:11:14;18.73;86.74
75387;DHT22;63966;47.914;22.266;2023-07-31T04:14:18;18.45;87.66
75387;DHT22;63966;47.914;22.266;2023-07-31T04:17:21;18.65;87.55
75387;DHT22;63966;47.914;22.266;2023-07-31T04:20:24;18.89;86.47
75387;DHT22;63966;47.914;22.266;2023-07-31T04:23:28;18.86;86.69
75387;DHT22;63966;47.914;22.266;2023-07-31T04:26:31;19.19;86.44
75387;DHT22;63966;47.914;22.266;2023-07-31T04:29:35;19.55;85.50
75387;DHT22;63966;47.914;22.266;2023-07-31T04:32:38;20.59;82.10
75387;DHT22;63966;47.914;22.266;2023-07-31T04:35:42;21.86;76.87
75387;DHT22;63966;47.914;22.266;2023-07-31T04:38:51;22.31;75.87
75387;DHT22;63966;47.914;22.266;2023-07-31T04:41:54;21.94;77.44
75387;DHT22;63966;47.914;22.266;2023-07-31T04:44:58;21.91;77.58
75387;DHT22;63966;47.914;22.266;2023-07-31T04:48:01;21.11;80.60
75387;DHT22;63966;47.914;22.266;2023-07-31T04:51:04;21.04;82.00
75387;DHT22;63966;47.914;22.266;2023-07-31T04:54:08;20.99;82.09
75387;DHT22;63966;47.914;22.266;2023-07-31T04:57:11;20.99;82.15
75387;DHT22;63966;47.914;22.266;2023-07-31T05:00:15;21.26;81.65
75387;DHT22;63966;47.914;22.266;2023-07-31T05:03:18;21.35;80.34
75387;DHT22;63966;47.914;22.266;2023-07-31T05:06:22;21.43;80.85
75387;DHT22;63966;47.914;22.266;2023-07-31T05:09:25;21.76;79.40
75387;DHT22;63966;47.914;22.266;2023-07-31T05:12:29;21.89;79.43
75387;DHT22;63966;47.914;22.266;2023-07-31T05:15:32;21.94;79.00
75387;DHT22;63966;47.914;22.266;2023-07-31T05:18:36;22.08;79.12
75387;DHT22;63966;47.914;22.266;2023-07-31T05:21:39;22.49;77.75
75387;DHT22;63966;47.914;22.266;2023-07-31T05:24:43;22.72;77.38
75387;DHT22;63966;47.914;22.266;2023-07-31T05:27:46;22.44;77.57
75387;DHT22;63966;47.914;22.266;2023-07-31T05:30:49;22.05;78.25
75387;DHT22;63966;47.914;22.266;2023-07-31T05:33:53;21.43;79.94
75387;DHT22;63966;47.914;22.266;2023-07-31T05:36:56;21.39;80.34
75387;DHT22;63966;47.914;22.266;2023-07-31T05:40:00;21.64;80.45
75387;DHT22;63966;47.914;22.266;2023-07-31T05:43:03;21.66;79.76
75387;DHT22;63966;47.914;22.266;2023-07-31T05:46:07;21.94;79.38
75387;DHT22;63966;47.914;22.266;2023-07-31T05:49:12;22.30;78.09
75387;DHT22;63966;47.914;22.266;2023-07-31T05:52:15;22.30;77.94
75387;DHT22;63966;47.914;22.266;2023-07-31T05:55:19;22.03;79.97
75387;DHT22;63966;47.914;22.266;2023-07-31T05:58:22;22.87;76.07
75387;DHT22;63966;47.914;22.266;2023-07-31T06:01:26;23.43;74.07
75387;DHT22;63966;47.914;22.266;2023-07-31T06:04:30;22.90;75.70
75387;DHT22;63966;47.914;22.266;2023-07-31T06:07:33;22.79;76.89
75387;DHT22;63966;47.914;22.266;2023-07-31T06:10:37;22.52;77.76
75387;DHT22;63966;47.914;22.266;2023-07-31T06:13:40;22.99;76.70
75387;DHT22;63966;47.914;22.266;2023-07-31T06:16:46;23.20;77.50
75387;DHT22;63966;47.914;22.266;2023-07-31T06:19:50;23.57;74.80
75387;DHT22;63966;47.914;22.266;2023-07-31T06:22:54;23.69;75.32
75387;DHT22;63966;47.914;22.266;2023-07-31T06:25:57;23.53;75.56
75387;DHT22;63966;47.914;22.266;2023-07-31T06:29:00;24.19;74.03
75387;DHT22;63966;47.914;22.266;2023-07-31T06:32:04;24.20;73.90
75387;DHT22;63966;47.914;22.266;2023-07-31T06:35:08;23.57;75.35
75387;DHT22;63966;47.914;22.266;2023-07-31T06:38:11;23.17;76.79
75387;DHT22;63966;47.914;22.266;2023-07-31T06:41:15;22.96;77.41
75387;DHT22;63966;47.914;22.266;2023-07-31T06:44:18;22.89;77.97
75387;DHT22;63966;47.914;22.266;2023-07-31T06:47:21;23.23;77.04
75387;DHT22;63966;47.914;22.266;2023-07-31T06:50:25;24.29;73.11
75387;DHT22;63966;47.914;22.266;2023-07-31T06:53:29;24.78;72.43
75387;DHT22;63966;47.914;22.266;2023-07-31T06:56:32;24.59;72.04
75387;DHT22;63966;47.914;22.266;2023-07-31T06:59:35;26.02;68.94
75387;DHT22;63966;47.914;22.266;2023-07-31T07:02:39;25.91;68.44
75387;DHT22;63966;47.914;22.266;2023-07-31T07:05:42;29.40;59.35
75387;DHT22;63966;47.914;22.266;2023-07-31T07:08:46;30.12;56.17
75387;DHT22;63966;47.914;22.266;2023-07-31T07:11:49;31.53;50.62
75387;DHT22;63966;47.914;22.266;2023-07-31T07:14:53;32.90;47.54
75387;DHT22;63966;47.914;22.266;2023-07-31T07:17:56;33.49;45.18
75387;DHT22;63966;47.914;22.266;2023-07-31T07:21:00;33.58;47.01
75387;DHT22;63966;47.914;22.266;2023-07-31T07:24:05;33.27;45.58
75387;DHT22;63966;47.914;22.266;2023-07-31T07:27:08;32.04;48.37
75387;DHT22;63966;47.914;22.266;2023-07-31T07:30:12;33.44;48.05
75387;DHT22;63966;47.914;22.266;2023-07-31T07:33:15;33.31;45.68
75387;DHT22;63966;47.914;22.266;2023-07-31T07:36:19;33.60;47.93
75387;DHT22;63966;47.914;22.266;2023-07-31T07:39:22;33.46;45.89
75387;DHT22;63966;47.914;22.266;2023-07-31T07:42:25;34.66;42.14
75387;DHT22;63966;47.914;22.266;2023-07-31T07:45:29;32.76;45.75
75387;DHT22;63966;47.914;22.266;2023-07-31T07:48:32;32.35;47.19
75387;DHT22;63966;47.914;22.266;2023-07-31T07:51:36;33.51;44.65
75387;DHT22;63966;47.914;22.266;2023-07-31T07:54:40;35.11;42.23
75387;DHT22;63966;47.914;22.266;2023-07-31T07:57:43;35.81;40.29
75387;DHT22;63966;47.914;22.266;2023-07-31T08:00:51;31.69;47.83
75387;DHT22;63966;47.914;22.266;2023-07-31T08:03:55;29.80;52.74
75387;DHT22;63966;47.914;22.266;2023-07-31T08:06:58;28.81;56.98
75387;DHT22;63966;47.914;22.266;2023-07-31T08:10:02;27.97;58.11
75387;DHT22;63966;47.914;22.266;2023-07-31T08:13:05;27.61;59.30
75387;DHT22;63966;47.914;22.266;2023-07-31T08:16:09;27.25;61.52
75387;DHT22;63966;47.914;22.266;2023-07-31T08:19:13;31.02;50.46
75387;DHT22;63966;47.914;22.266;2023-07-31T08:22:16;32.96;46.62
75387;DHT22;63966;47.914;22.266;2023-07-31T08:25:20;34.45;44.43
75387;DHT22;63966;47.914;22.266;2023-07-31T08:28:23;30.37;50.27
75387;DHT22;63966;47.914;22.266;2023-07-31T08:31:26;30.01;53.47
75387;DHT22;63966;47.914;22.266;2023-07-31T08:34:32;28.48;56.67
75387;DHT22;63966;47.914;22.266;2023-07-31T08:37:35;29.40;54.43
75387;DHT22;63966;47.914;22.266;2023-07-31T08:40:39;30.56;51.11
75387;DHT22;63966;47.914;22.266;2023-07-31T08:43:43;34.35;47.14
75387;DHT22;63966;47.914;22.266;2023-07-31T08:46:48;34.83;44.56
75387;DHT22;63966;47.914;22.266;2023-07-31T08:49:53;33.00;46.91
75387;DHT22;63966;47.914;22.266;2023-07-31T08:52:58;32.42;46.08
75387;DHT22;63966;47.914;22.266;2023-07-31T08:56:01;30.97;51.85
75387;DHT22;63966;47.914;22.266;2023-07-31T08:59:05;29.95;53.12
75387;DHT22;63966;47.914;22.266;2023-07-31T09:02:09;28.60;55.68
75387;DHT22;63966;47.914;22.266;2023-07-31T09:05:13;27.93;58.31
75387;DHT22;63966;47.914;22.266;2023-07-31T09:08:21;27.30;61.01
75387;DHT22;63966;47.914;22.266;2023-07-31T09:11:25;27.99;57.84
75387;DHT22;63966;47.914;22.266;2023-07-31T09:14:29;28.25;56.14
75387;DHT22;63966;47.914;22.266;2023-07-31T09:17:35;28.39;58.36
75387;DHT22;63966;47.914;22.266;2023-07-31T09:20:41;28.76;57.00
75387;DHT22;63966;47.914;22.266;2023-07-31T09:23:46;28.57;57.16
75387;DHT22;63966;47.914;22.266;2023-07-31T09:26:55;29.57;54.63
75387;DHT22;63966;47.914;22.266;2023-07-31T09:29:59;29.36;54.58
75387;DHT22;63966;47.914;22.266;2023-07-31T09:33:06;28.67;57.61
75387;DHT22;63966;47.914;22.266;2023-07-31T09:36:10;28.48;54.10
75387;DHT22;63966;47.914;22.266;2023-07-31T09:39:17;28.98;54.76
75387;DHT22;63966;47.914;22.266;2023-07-31T09:42:27;29.16;54.17
75387;DHT22;63966;47.914;22.266;2023-07-31T09:45:37;28.88;56.61
75387;DHT22;63966;47.914;22.266;2023-07-31T09:48:44;28.79;54.56
75387;DHT22;63966;47.914;22.266;2023-07-31T09:51:47;28.28;53.70
75387;DHT22;63966;47.914;22.266;2023-07-31T09:54:50;28.06;54.95
75387;DHT22;63966;47.914;22.266;2023-07-31T09:57:55;27.85;54.50
75387;DHT22;63966;47.914;22.266;2023-07-31T10:01:00;28.28;55.08
75387;DHT22;63966;47.914;22.266;2023-07-31T10:04:05;28.16;56.35
75387;DHT22;63966;47.914;22.266;2023-07-31T10:07:10;28.21;54.01
75387;DHT22;63966;47.914;22.266;2023-07-31T10:10:15;28.33;53.97
75387;DHT22;63966;47.914;22.266;2023-07-31T10:13:19;28.31;55.20
75387;DHT22;63966;47.914;22.266;2023-07-31T10:16:25;28.54;52.22
75387;DHT22;63966;47.914;22.266;2023-07-31T10:19:30;28.50;52.87
75387;DHT22;63966;47.914;22.266;2023-07-31T10:22:34;28.51;51.49
75387;DHT22;63966;47.914;22.266;2023-07-31T10:25:39;28.50;51.45
75387;DHT22;63966;47.914;22.266;2023-07-31T10:28:44;28.28;51.64
75387;DHT22;63966;47.914;22.266;2023-07-31T10:31:49;28.40;56.01
75387;DHT22;63966;47.914;22.266;2023-07-31T10:34:53;28.30;53.87
75387;DHT22;63966;47.914;22.266;2023-07-31T10:38:10;27.93;56.91
75387;DHT22;63966;47.914;22.266;2023-07-31T10:41:14;27.83;56.11
75387;DHT22;63966;47.914;22.266;2023-07-31T10:44:18;28.58;57.40
75387;DHT22;63966;47.914;22.266;2023-07-31T10:47:23;28.99;54.98
75387;DHT22;63966;47.914;22.266;2023-07-31T10:50:27;28.61;52.60
75387;DHT22;63966;47.914;22.266;2023-07-31T10:53:32;28.39;53.73
75387;DHT22;63966;47.914;22.266;2023-07-31T10:56:38;27.76;54.48
75387;DHT22;63966;47.914;22.266;2023-07-31T10:59:43;27.62;53.90
75387;DHT22;63966;47.914;22.266;2023-07-31T11:03:07;28.43;54.23
75387;DHT22;63966;47.914;22.266;2023-07-31T11:06:13;29.30;52.48
75387;DHT22;63966;47.914;22.266;2023-07-31T11:09:20;29.68;54.86
75387;DHT22;63966;47.914;22.266;2023-07-31T11:12:24;29.65;54.74
75387;DHT22;63966;47.914;22.266;2023-07-31T11:15:27;29.34;52.42
75387;DHT22;63966;47.914;22.266;2023-07-31T11:18:31;29.37;52.20
75387;DHT22;63966;47.914;22.266;2023-07-31T11:21:34;28.52;52.51
75387;DHT22;63966;47.914;22.266;2023-07-31T11:24:38;28.17;55.21
75387;DHT22;63966;47.914;22.266;2023-07-31T11:27:42;28.33;54.40
75387;DHT22;63966;47.914;22.266;2023-07-31T11:30:47;28.33;53.92
75387;DHT22;63966;47.914;22.266;2023-07-31T11:33:50;28.81;51.61
75387;DHT22;63966;47.914;22.266;2023-07-31T11:36:54;28.25;54.69
75387;DHT22;63966;47.914;22.266;2023-07-31T11:40:02;27.86;53.01
75387;DHT22;63966;47.914;22.266;2023-07-31T11:43:06;27.62;53.44
75387;DHT22;63966;47.914;22.266;2023-07-31T11:46:10;27.72;54.11
75387;DHT22;63966;47.914;22.266;2023-07-31T11:49:13;27.81;53.01
75387;DHT22;63966;47.914;22.266;2023-07-31T11:52:19;27.96;52.57
75387;DHT22;63966;47.914;22.266;2023-07-31T11:55:26;27.97;52.54
75387;DHT22;63966;47.914;22.266;2023-07-31T11:58:31;27.81;52.53
75387;DHT22;63966;47.914;22.266;2023-07-31T12:01:35;27.75;51.87
75387;DHT22;63966;47.914;22.266;2023-07-31T12:04:39;27.92;54.75
75387;DHT22;63966;47.914;22.266;2023-07-31T12:07:50;28.02;52.75
75387;DHT22;63966;47.914;22.266;2023-07-31T12:10:54;28.04;49.11
75387;DHT22;63966;47.914;22.266;2023-07-31T12:14:05;27.86;47.18
75387;DHT22;63966;47.914;22.266;2023-07-31T12:17:09;27.93;49.95
75387;DHT22;63966;47.914;22.266;2023-07-31T12:20:12;27.99;51.37
75387;DHT22;63966;47.914;22.266;2023-07-31T12:23:20;28.12;52.96
75387;DHT22;63966;47.914;22.266;2023-07-31T12:26:37;27.96;50.97
75387;DHT22;63966;47.914;22.266;2023-07-31T12:29:42;27.70;53.09
75387;DHT22;63966;47.914;22.266;2023-07-31T12:32:47;27.69;53.31
75387;DHT22;63966;47.914;22.266;2023-07-31T12:35:50;27.63;54.58
75387;DHT22;63966;47.914;22.266;2023-07-31T12:38:55;27.62;57.30
75387;DHT22;63966;47.914;22.266;2023-07-31T12:42:01;27.59;55.10
75387;DHT22;63966;47.914;22.266;2023-07-31T12:45:05;27.59;57.03
75387;DHT22;63966;47.914;22.266;2023-07-31T12:48:09;27.61;54.76
75387;DHT22;63966;47.914;22.266;2023-07-31T12:51:12;27.70;54.40
75387;DHT22;63966;47.914;22.266;2023-07-31T12:54:16;27.79;54.76
75387;DHT22;63966;47.914;22.266;2023-07-31T12:57:19;27.58;53.78
75387;DHT22;63966;47.914;22.266;2023-07-31T13:00:24;27.59;54.84
75387;DHT22;63966;47.914;22.266;2023-07-31T13:03:29;27.37;56.49
75387;DHT22;63966;47.914;22.266;2023-07-31T13:06:32;27.25;54.97
75387;DHT22;63966;47.914;22.266;2023-07-31T13:09:36;27.04;54.87
75387;DHT22;63966;47.914;22.266;2023-07-31T13:12:39;27.04;53.99
75387;DHT22;63966;47.914;22.266;2023-07-31T13:15:44;26.98;52.15
75387;DHT22;63966;47.914;22.266;2023-07-31T13:18:48;27.15;50.87
75387;DHT22;63966;47.914;22.266;2023-07-31T13:21:51;27.01;51.52
75387;DHT22;63966;47.914;22.266;2023-07-31T13:24:56;27.00;52.09
75387;DHT22;63966;47.914;22.266;2023-07-31T13:28:00;26.96;52.43
75387;DHT22;63966;47.914;22.266;2023-07-31T13:31:05;26.97;51.20
75387;DHT22;63966;47.914;22.266;2023-07-31T13:34:09;26.98;50.87
75387;DHT22;63966;47.914;22.266;2023-07-31T13:37:12;26.87;51.15
75387;DHT22;63966;47.914;22.266;2023-07-31T13:40:16;26.87;51.37
75387;DHT22;63966;47.914;22.266;2023-07-31T13:43:19;26.97;52.36
75387;DHT22;63966;47.914;22.266;2023-07-31T13:46:23;27.07;51.79
75387;DHT22;63966;47.914;22.266;2023-07-31T13:49:27;27.18;54.42
75387;DHT22;63966;47.914;22.266;2023-07-31T13:52:30;27.20;53.44
75387;DHT22;63966;47.914;22.266;2023-07-31T13:55:33;27.30;52.35
75387;DHT22;63966;47.914;22.266;2023-07-31T13:58:37;27.18;52.81
75387;DHT22;63966;47.914;22.266;2023-07-31T14:01:40;27.08;51.94
75387;DHT22;63966;47.914;22.266;2023-07-31T14:04:44;27.20;54.27
75387;DHT22;63966;47.914;22.266;2023-07-31T14:07:47;27.06;52.86
75387;DHT22;63966;47.914;22.266;2023-07-31T14:10:51;27.06;52.43
75387;DHT22;63966;47.914;22.266;2023-07-31T14:13:54;27.04;53.01
75387;DHT22;63966;47.914;22.266;2023-07-31T14:16:59;26.90;51.98
75387;DHT22;63966;47.914;22.266;2023-07-31T14:20:03;26.87;51.18
75387;DHT22;63966;47.914;22.266;2023-07-31T14:23:07;26.93;53.76
75387;DHT22;63966;47.914;22.266;2023-07-31T14:26:11;26.83;53.44
75387;DHT22;63966;47.914;22.266;2023-07-31T14:29:14;26.72;52.66
75387;DHT22;63966;47.914;22.266;2023-07-31T14:32:18;26.62;52.80
75387;DHT22;63966;47.914;22.266;2023-07-31T14:35:21;26.79;51.32
75387;DHT22;63966;47.914;22.266;2023-07-31T14:38:24;26.84;51.87
75387;DHT22;63966;47.914;22.266;2023-07-31T14:41:28;26.93;53.46
75387;DHT22;63966;47.914;22.266;2023-07-31T14:44:31;26.93;50.71
75387;DHT22;63966;47.914;22.266;2023-07-31T14:47:35;26.91;52.10
75387;DHT22;63966;47.914;22.266;2023-07-31T14:50:38;26.80;52.93
75387;DHT22;63966;47.914;22.266;2023-07-31T14:53:42;27.01;54.50
75387;DHT22;63966;47.914;22.266;2023-07-31T14:56:45;26.98;51.99
75387;DHT22;63966;47.914;22.266;2023-07-31T14:59:48;26.94;52.04
75387;DHT22;63966;47.914;22.266;2023-07-31T15:02:52;26.76;51.30
75387;DHT22;63966;47.914;22.266;2023-07-31T15:05:55;26.86;54.04
75387;DHT22;63966;47.914;22.266;2023-07-31T15:08:59;26.66;53.12
75387;DHT22;63966;47.914;22.266;2023-07-31T15:12:03;26.62;53.22
75387;DHT22;63966;47.914;22.266;2023-07-31T15:15:07;26.62;52.31
75387;DHT22;63966;47.914;22.266;2023-07-31T15:18:10;26.63;52.87
75387;DHT22;63966;47.914;22.266;2023-07-31T15:21:14;26.66;54.64
75387;DHT22;63966;47.914;22.266;2023-07-31T15:24:17;26.63;53.71
75387;DHT22;63966;47.914;22.266;2023-07-31T15:27:21;26.72;52.54
75387;DHT22;63966;47.914;22.266;2023-07-31T15:30:24;26.56;51.84
75387;DHT22;63966;47.914;22.266;2023-07-31T15:33:28;26.39;53.18
75387;DHT22;63966;47.914;22.266;2023-07-31T15:36:32;26.36;52.52
75387;DHT22;63966;47.914;22.266;2023-07-31T15:39:35;26.33;52.78
75387;DHT22;63966;47.914;22.266;2023-07-31T15:42:39;26.31;52.90
75387;DHT22;63966;47.914;22.266;2023-07-31T15:45:43;26.35;53.77
75387;DHT22;63966;47.914;22.266;2023-07-31T15:48:46;26.39;53.91
75387;DHT22;63966;47.914;22.266;2023-07-31T15:51:49;26.32;54.18
75387;DHT22;63966;47.914;22.266;2023-07-31T15:54:53;26.29;52.47
75387;DHT22;63966;47.914;22.266;2023-07-31T15:57:56;26.24;53.87
75387;DHT22;63966;47.914;22.266;2023-07-31T16:01:00;26.24;53.23
75387;DHT22;63966;47.914;22.266;2023-07-31T16:04:03;26.21;53.47
75387;DHT22;63966;47.914;22.266;2023-07-31T16:07:06;26.18;54.35
75387;DHT22;63966;47.914;22.266;2023-07-31T16:10:10;26.20;55.13
75387;DHT22;63966;47.914;22.266;2023-07-31T16:13:13;26.14;54.17
75387;DHT22;63966;47.914;22.266;2023-07-31T16:16:17;26.20;54.31
75387;DHT22;63966;47.914;22.266;2023-07-31T16:19:20;26.12;53.97
75387;DHT22;63966;47.914;22.266;2023-07-31T16:22:24;25.95;54.65
75387;DHT22;63966;47.914;22.266;2023-07-31T16:25:28;25.90;55.10
75387;DHT22;63966;47.914;22.266;2023-07-31T16:28:31;25.81;55.56
75387;DHT22;63966;47.914;22.266;2023-07-31T16:31:35;25.80;55.66
75387;DHT22;63966;47.914;22.266;2023-07-31T16:34:53;25.74;56.58
75387;DHT22;63966;47.914;22.266;2023-07-31T16:37:56;25.71;56.97
75387;DHT22;63966;47.914;22.266;2023-07-31T16:41:00;25.63;56.55
75387;DHT22;63966;47.914;22.266;2023-07-31T16:44:03;25.64;56.60
75387;DHT22;63966;47.914;22.266;2023-07-31T16:47:07;25.60;57.72
75387;DHT22;63966;47.914;22.266;2023-07-31T16:50:10;25.47;58.21
75387;DHT22;63966;47.914;22.266;2023-07-31T16:53:14;25.37;57.19
75387;DHT22;63966;47.914;22.266;2023-07-31T16:56:17;25.27;58.65
75387;DHT22;63966;47.914;22.266;2023-07-31T16:59:21;25.18;58.99
75387;DHT22;63966;47.914;22.266;2023-07-31T17:02:24;25.15;58.68
75387;DHT22;63966;47.914;22.266;2023-07-31T17:05:28;25.15;59.68
75387;DHT22;63966;47.914;22.266;2023-07-31T17:08:31;25.04;59.95
75387;DHT22;63966;47.914;22.266;2023-07-31T17:11:35;24.95;59.41
75387;DHT22;63966;47.914;22.266;2023-07-31T17:14:38;24.91;60.73
75387;DHT22;63966;47.914;22.266;2023-07-31T17:17:42;24.81;62.12
75387;DHT22;63966;47.914;22.266;2023-07-31T17:20:45;24.70;62.71
75387;DHT22;63966;47.914;22.266;2023-07-31T17:23:49;24.49;63.73
75387;DHT22;63966;47.914;22.266;2023-07-31T17:26:52;24.34;62.36
75387;DHT22;63966;47.914;22.266;2023-07-31T17:29:56;24.24;62.52
75387;DHT22;63966;47.914;22.266;2023-07-31T17:33:00;24.19;63.03
75387;DHT22;63966;47.914;22.266;2023-07-31T17:36:03;24.10;63.65
75387;DHT22;63966;47.914;22.266;2023-07-31T17:39:06;24.08;63.83
75387;DHT22;63966;47.914;22.266;2023-07-31T17:42:10;24.02;63.96
75387;DHT22;63966;47.914;22.266;2023-07-31T17:45:13;23.86;64.24
75387;DHT22;63966;47.914;22.266;2023-07-31T17:48:17;23.78;65.08
75387;DHT22;63966;47.914;22.266;2023-07-31T17:51:20;23.66;64.75
75387;DHT22;63966;47.914;22.266;2023-07-31T17:54:23;23.48;70.82
75387;DHT22;63966;47.914;22.266;2023-07-31T17:57:28;23.27;70.88
75387;DHT22;63966;47.914;22.266;2023-07-31T18:00:32;23.07;72.18
75387;DHT22;63966;47.914;22.266;2023-07-31T18:03:35;22.87;72.53
75387;DHT22;63966;47.914;22.266;2023-07-31T18:06:39;22.70;74.23
75387;DHT22;63966;47.914;22.266;2023-07-31T18:09:43;22.47;77.69
75387;DHT22;63966;47.914;22.266;2023-07-31T18:12:47;22.25;76.50
75387;DHT22;63966;47.914;22.266;2023-07-31T18:15:50;22.08;77.03
75387;DHT22;63966;47.914;22.266;2023-07-31T18:18:53;21.87;78.53
75387;DHT22;63966;47.914;22.266;2023-07-31T18:21:57;21.79;79.46
75387;DHT22;63966;47.914;22.266;2023-07-31T18:25:01;21.70;80.41
75387;DHT22;63966;47.914;22.266;2023-07-31T18:28:04;21.56;81.77
75387;DHT22;63966;47.914;22.266;2023-07-31T18:31:08;21.39;83.36
75387;DHT22;63966;47.914;22.266;2023-07-31T18:34:12;21.29;82.88
75387;DHT22;63966;47.914;22.266;2023-07-31T18:37:15;21.32;81.89
75387;DHT22;63966;47.914;22.266;2023-07-31T18:40:18;21.16;83.50
75387;DHT22;63966;47.914;22.266;2023-07-31T18:43:22;21.04;84.19
75387;DHT22;63966;47.914;22.266;2023-07-31T18:46:25;20.92;83.89
75387;DHT22;63966;47.914;22.266;2023-07-31T18:49:29;20.85;83.85
75387;DHT22;63966;47.914;22.266;2023-07-31T18:52:32;20.78;84.02
75387;DHT22;63966;47.914;22.266;2023-07-31T18:55:36;20.74;84.19
75387;DHT22;63966;47.914;22.266;2023-07-31T18:58:44;20.66;84.34
75387;DHT22;63966;47.914;22.266;2023-07-31T19:01:47;20.54;84.74
75387;DHT22;63966;47.914;22.266;2023-07-31T19:04:53;20.44;85.59
75387;DHT22;63966;47.914;22.266;2023-07-31T19:07:56;20.30;86.30
75387;DHT22;63966;47.914;22.266;2023-07-31T19:11:02;20.25;86.29
75387;DHT22;63966;47.914;22.266;2023-07-31T19:14:06;20.19;86.22
75387;DHT22;63966;47.914;22.266;2023-07-31T19:17:09;20.11;86.58